createdAt,value
2023-02-11T00:00:41.105Z,100089.25
2023-02-11T00:02:47.722Z,100084.13
2023-02-11T00:04:51.048Z,100084.94
2023-02-11T00:06:56.209Z,100087.50
2023-02-11T00:08:59.575Z,100076.34
2023-02-11T00:11:02.719Z,100078.06
2023-02-11T00:13:05.737Z,100082.28
2023-02-11T00:15:09.767Z,100079.72
2023-02-11T00:17:12.814Z,100083.13
2023-02-11T00:19:15.964Z,100074.56
2023-02-11T00:21:21.303Z,100071.13
2023-02-11T00:23:25.759Z,100073.69
2023-02-11T00:25:28.918Z,100071.97
2023-02-11T00:27:32.074Z,100071.97
2023-02-11T00:29:35.382Z,100068.56
2023-02-11T00:31:39.779Z,100067.75
2023-02-11T00:33:43.437Z,100072.00
2023-02-11T00:35:46.658Z,100076.25
2023-02-11T00:37:49.732Z,100069.44
2023-02-11T00:39:54.247Z,100066.00
2023-02-11T00:41:57.424Z,100070.31
2023-02-11T00:44:00.679Z,100071.16
2023-02-11T00:46:04.158Z,100061.72
2023-02-11T00:48:07.550Z,100064.28
2023-02-11T00:50:10.726Z,100063.44
2023-02-11T00:52:13.790Z,100061.72
2023-02-11T00:54:16.845Z,100059.16
2023-02-11T00:56:21.402Z,100059.16
2023-02-11T00:58:25.433Z,100058.31
2023-02-11T01:00:28.581Z,100049.75
2023-02-11T01:02:31.638Z,100047.19
2023-02-11T01:04:34.764Z,100037.75
2023-02-11T01:06:37.874Z,100028.38
2023-02-11T01:08:41.889Z,100022.38
2023-02-11T01:10:45.009Z,100033.47
2023-02-11T01:12:49.464Z,100025.78
2023-02-11T01:14:52.510Z,100022.38
2023-02-11T01:16:55.847Z,100023.22
2023-02-11T01:18:59.524Z,100019.81
2023-02-11T01:21:02.583Z,100020.63
2023-02-11T01:23:05.863Z,100013.81
2023-02-11T01:25:09.386Z,100018.03
2023-02-11T01:27:12.453Z,100017.22
2023-02-11T01:29:16.901Z,100024.91
2023-02-11T01:31:19.901Z,100024.94
2023-02-11T01:33:23.518Z,100028.31
2023-02-11T01:35:26.575Z,100038.56
2023-02-11T01:37:29.586Z,100036.00
2023-02-11T01:39:34.989Z,100033.41
2023-02-11T01:41:38.126Z,100036.88
2023-02-11T01:43:43.143Z,100027.47
2023-02-11T01:46:08.031Z,100026.63
2023-02-11T01:48:13.762Z,100029.97
2023-02-11T01:50:17.069Z,100017.22
2023-02-11T01:52:23.817Z,100026.63
2023-02-11T01:54:47.642Z,100018.06
2023-02-11T01:57:11.831Z,100018.06
2023-02-11T01:59:19.921Z,100022.38
2023-02-11T02:01:26.169Z,100020.66
2023-02-11T02:03:30.054Z,100018.97
2023-02-11T02:05:36.186Z,100017.25
2023-02-11T02:07:44.070Z,100012.94
2023-02-11T02:09:51.173Z,100018.09
2023-02-11T02:11:54.465Z,100017.25
2023-02-11T02:13:57.549Z,100018.13
2023-02-11T02:16:02.202Z,100012.19
2023-02-11T02:18:21.380Z,100011.38
2023-02-11T02:21:01.009Z,100013.94
2023-02-11T02:23:26.708Z,100010.53
2023-02-11T02:25:42.418Z,99989.22
2023-02-11T02:27:53.336Z,99995.19
2023-02-11T02:30:18.080Z,100000.31
2023-02-11T02:32:31.471Z,99991.81
2023-02-11T02:34:39.115Z,99979.81
2023-02-11T02:36:45.207Z,99980.66
2023-02-11T02:38:54.349Z,99975.53
2023-02-11T02:41:00.814Z,99972.13
2023-02-11T02:43:04.534Z,99964.44
2023-02-11T02:45:09.196Z,99966.16
2023-02-11T02:47:12.164Z,99964.44
2023-02-11T02:49:18.381Z,99962.69
2023-02-11T02:51:32.738Z,99963.56
2023-02-11T02:53:45.313Z,99961.03
2023-02-11T02:56:01.571Z,99972.13
2023-02-11T02:58:20.391Z,99962.72
2023-02-11T03:00:26.849Z,99959.34
2023-02-11T03:02:32.839Z,99951.66
2023-02-11T03:04:41.611Z,99954.22
2023-02-11T03:06:49.874Z,99958.50
2023-02-11T03:08:58.769Z,99944.81
2023-02-11T03:11:02.945Z,99951.66
2023-02-11T03:13:06.505Z,99944.81
2023-02-11T03:15:10.600Z,99947.38
2023-02-11T03:17:15.501Z,99954.25
2023-02-11T03:19:21.127Z,99952.53
2023-02-11T03:21:26.081Z,99943.09
2023-02-11T03:23:30.716Z,99943.13
2023-02-11T03:25:37.456Z,99936.28
2023-02-11T03:27:44.918Z,99947.38
2023-02-11T03:29:54.220Z,99950.78
2023-02-11T03:32:02.280Z,99955.09
2023-02-11T03:34:09.724Z,99965.34
2023-02-11T03:36:17.718Z,99956.81
2023-02-11T03:38:23.887Z,99953.38
2023-02-11T03:40:28.977Z,99951.69
2023-02-11T03:42:35.656Z,99954.25
2023-02-11T03:44:42.063Z,99970.50
2023-02-11T03:46:49.540Z,99967.94
2023-02-11T03:48:53.740Z,99972.22
2023-02-11T03:50:58.422Z,99979.91
2023-02-11T03:53:03.055Z,99979.94
2023-02-11T03:55:11.120Z,99985.91
2023-02-11T03:57:14.137Z,99975.66
2023-02-11T03:59:17.169Z,99969.66
2023-02-11T04:01:20.237Z,99975.66
2023-02-11T04:03:23.338Z,99969.66
2023-02-11T04:05:26.392Z,99960.25
2023-02-11T04:07:29.626Z,99977.38
2023-02-11T04:09:33.055Z,99967.09
2023-02-11T04:11:37.644Z,99965.38
2023-02-11T04:13:40.728Z,99962.81
2023-02-11T04:15:43.828Z,99966.22
2023-02-11T04:17:46.933Z,99968.78
2023-02-11T04:19:50.044Z,99973.94
2023-02-11T04:21:53.073Z,99973.09
2023-02-11T04:23:56.135Z,99970.50
2023-02-11T04:25:59.797Z,99969.63
2023-02-11T04:28:04.279Z,99981.63
2023-02-11T04:30:08.779Z,99973.94
2023-02-11T04:32:12.364Z,99972.19
2023-02-11T04:34:15.513Z,99973.91
2023-02-11T04:36:18.586Z,99968.78
2023-02-11T04:38:24.083Z,99968.78
2023-02-11T04:40:27.178Z,99967.94
2023-02-11T04:42:30.198Z,99973.91
2023-02-11T04:44:34.672Z,99963.63
2023-02-11T04:46:37.803Z,99968.78
2023-02-11T04:48:40.899Z,99969.63
2023-02-11T04:50:43.992Z,99969.63
2023-02-11T04:52:46.930Z,99967.91
2023-02-11T04:54:50.053Z,99967.91
2023-02-11T04:56:53.081Z,99957.63
2023-02-11T04:58:56.083Z,99959.34
2023-02-11T05:01:08.184Z,99954.19
2023-02-11T05:03:11.380Z,99948.22
2023-02-11T05:05:14.459Z,99949.91
2023-02-11T05:07:17.472Z,99943.06
2023-02-11T05:09:20.557Z,99940.50
2023-02-11T05:11:25.488Z,99927.66
2023-02-11T05:13:28.606Z,99934.47
2023-02-11T05:15:31.744Z,99926.78
2023-02-11T05:17:38.389Z,99925.09
2023-02-11T05:19:42.715Z,99929.34
2023-02-11T05:22:01.347Z,99922.50
2023-02-11T05:24:05.567Z,99919.94
2023-02-11T05:26:09.141Z,99919.06
2023-02-11T05:28:12.196Z,99924.19
2023-02-11T05:30:15.576Z,99929.34
2023-02-11T05:32:18.660Z,99928.47
2023-02-11T05:34:23.097Z,99931.06
2023-02-11T05:36:26.113Z,99926.75
2023-02-11T05:38:29.388Z,99916.47
2023-02-11T05:40:32.476Z,99907.91
2023-02-11T05:42:35.537Z,99913.03
2023-02-11T05:44:38.838Z,99914.75
2023-02-11T05:46:41.961Z,99919.00
2023-02-11T05:48:45.120Z,99921.56
2023-02-11T05:50:49.514Z,99922.44
2023-02-11T05:52:52.525Z,99926.72
2023-02-11T05:54:55.811Z,99939.56
2023-02-11T05:56:58.856Z,99936.16
2023-02-11T05:59:01.902Z,99939.59
2023-02-11T06:01:05.188Z,99936.19
2023-02-11T06:03:08.231Z,99941.31
2023-02-11T06:05:11.354Z,99941.31
2023-02-11T06:07:15.773Z,99949.00
2023-02-11T06:09:18.725Z,99936.16
2023-02-11T06:11:21.721Z,99931.88
2023-02-11T06:13:24.812Z,99931.84
2023-02-11T06:15:29.864Z,99921.56
2023-02-11T06:17:33.782Z,99933.56
2023-02-11T06:19:37.072Z,99930.16
2023-02-11T06:21:44.199Z,99929.28
2023-02-11T06:23:49.133Z,99932.72
2023-02-11T06:25:52.644Z,99922.44
2023-02-11T06:27:56.239Z,99927.59
2023-02-11T06:29:59.448Z,99936.13
2023-02-11T06:32:02.681Z,99936.97
2023-02-11T06:34:06.102Z,99931.81
2023-02-11T06:36:14.646Z,99928.41
2023-02-11T06:38:17.705Z,99929.28
2023-02-11T06:40:22.130Z,99927.59
2023-02-11T06:42:25.206Z,99944.69
2023-02-11T06:44:28.336Z,99937.81
2023-02-11T06:46:31.476Z,99936.13
2023-02-11T06:48:34.863Z,99932.66
2023-02-11T06:50:38.010Z,99936.09
2023-02-11T06:52:41.537Z,99940.34
2023-02-11T06:54:44.664Z,99946.38
2023-02-11T06:56:49.205Z,99954.06
2023-02-11T06:58:54.669Z,99943.78
2023-02-11T07:00:57.861Z,99950.63
2023-02-11T07:03:01.010Z,99948.91
2023-02-11T07:05:04.285Z,99948.91
2023-02-11T07:07:07.446Z,99949.75
2023-02-11T07:09:10.721Z,99951.47
2023-02-11T07:11:16.391Z,99941.19
2023-02-11T07:13:20.863Z,99936.06
2023-02-11T07:15:23.886Z,99930.03
2023-02-11T07:17:26.962Z,99929.19
2023-02-11T07:19:29.973Z,99933.47
2023-02-11T07:21:33.146Z,99933.47
2023-02-11T07:23:37.233Z,99933.47
2023-02-11T07:25:40.352Z,99938.59
2023-02-11T07:27:43.426Z,99943.69
2023-02-11T07:29:48.654Z,99953.09
2023-02-11T07:31:51.768Z,99949.69
2023-02-11T07:33:55.912Z,99948.78
2023-02-11T07:36:01.380Z,99949.63
2023-02-11T07:38:04.386Z,99947.06
2023-02-11T07:40:08.299Z,99944.47
2023-02-11T07:42:11.326Z,99944.44
2023-02-11T07:44:14.382Z,99943.53
2023-02-11T07:46:20.288Z,99939.19
2023-02-11T07:48:23.332Z,99935.69
2023-02-11T07:50:26.475Z,99942.50
2023-02-11T07:52:30.780Z,99943.22
2023-02-11T07:54:33.832Z,99947.41
2023-02-11T07:56:37.003Z,99949.88
2023-02-11T07:58:42.105Z,99944.69
2023-02-11T08:00:45.798Z,99944.75
2023-02-11T08:02:50.369Z,99949.03
2023-02-11T08:04:53.415Z,99947.28
2023-02-11T08:06:58.956Z,99948.97
2023-02-11T08:09:05.769Z,99957.47
2023-02-11T08:11:09.420Z,99964.34
2023-02-11T08:13:12.538Z,99966.00
2023-02-11T08:15:17.191Z,99964.25
2023-02-11T08:17:20.346Z,99976.16
2023-02-11T08:19:24.816Z,99980.34
2023-02-11T08:21:28.433Z,99975.16
2023-02-11T08:23:31.532Z,99990.50
2023-02-11T08:25:34.603Z,99988.75
2023-02-11T08:27:37.729Z,99987.03
2023-02-11T08:29:40.838Z,99985.31
2023-02-11T08:31:46.606Z,99990.13
2023-02-11T08:33:50.126Z,99991.34
2023-02-11T08:35:54.864Z,99986.81
2023-02-11T08:37:58.054Z,99984.97
2023-02-11T08:40:01.366Z,99971.03
2023-02-11T08:42:04.837Z,99961.56
2023-02-11T08:44:08.019Z,99969.41
2023-02-11T08:46:11.721Z,99967.56
2023-02-11T08:48:14.872Z,99965.72
2023-02-11T08:50:18.135Z,99975.09
2023-02-11T08:52:22.684Z,99979.28
2023-02-11T08:54:25.933Z,99979.00
2023-02-11T08:56:31.384Z,99989.03
2023-02-11T08:58:34.608Z,99989.69
2023-02-11T09:00:37.831Z,99990.47
2023-02-11T09:02:41.006Z,99985.13
2023-02-11T09:04:44.104Z,99985.47
2023-02-11T09:06:47.343Z,99986.09
2023-02-11T09:08:53.737Z,99976.44
2023-02-11T09:10:57.693Z,99973.41
2023-02-11T09:13:01.023Z,99959.47
2023-02-11T09:15:04.038Z,99963.59
2023-02-11T09:17:07.183Z,99961.56
2023-02-11T09:19:10.680Z,99958.41
2023-02-11T09:21:14.480Z,99968.91
2023-02-11T09:23:18.635Z,99973.50
2023-02-11T09:25:22.950Z,99979.06
2023-02-11T09:27:25.996Z,99978.44
2023-02-11T09:29:29.161Z,99977.81
2023-02-11T09:31:33.668Z,99981.25
2023-02-11T09:33:37.047Z,99982.56
2023-02-11T09:35:41.083Z,99973.56
2023-02-11T09:37:44.044Z,99976.59
2023-02-11T09:39:47.200Z,99980.59
2023-02-11T09:42:08.438Z,99979.38
2023-02-11T09:44:19.580Z,99984.06
2023-02-11T09:46:23.063Z,99982.41
2023-02-11T09:48:26.247Z,99981.47
2023-02-11T09:50:32.262Z,99994.13
2023-02-11T09:52:39.277Z,99992.13
2023-02-11T09:54:50.737Z,99996.03
2023-02-11T09:56:53.895Z,100002.47
2023-02-11T09:58:58.357Z,99996.16
2023-02-11T10:01:06.816Z,99998.69
2023-02-11T10:03:21.632Z,100007.31
2023-02-11T10:05:34.903Z,100005.56
2023-02-11T10:07:41.855Z,100008.03
2023-02-11T10:10:01.905Z,100009.34
2023-02-11T10:12:16.970Z,100012.31
2023-02-11T10:14:30.243Z,100015.19
2023-02-11T10:16:43.184Z,100008.69
2023-02-11T10:19:05.290Z,99999.84
2023-02-11T10:21:16.566Z,100017.22
2023-02-11T10:23:22.574Z,100019.84
2023-02-11T10:25:27.952Z,100010.91
2023-02-11T10:27:35.055Z,100009.78
2023-02-11T10:29:42.064Z,100010.38
2023-02-11T10:31:46.227Z,100012.59
2023-02-11T10:33:54.797Z,100012.31
2023-02-11T10:35:58.091Z,100000.66
2023-02-11T10:38:01.720Z,100005.75
2023-02-11T10:40:05.484Z,100009.75
2023-02-11T10:42:12.085Z,99997.03
2023-02-11T10:44:24.801Z,99986.53
2023-02-11T10:46:33.585Z,99991.84
2023-02-11T10:48:40.290Z,99987.56
2023-02-11T10:50:43.482Z,99985.75
2023-02-11T10:52:46.570Z,99989.63
2023-02-11T10:55:01.424Z,99990.91
2023-02-11T10:57:04.847Z,99980.50
2023-02-11T10:59:14.841Z,99977.19
2023-02-11T11:01:24.376Z,99978.72
2023-02-11T11:03:33.385Z,99971.63
2023-02-11T11:05:38.446Z,99961.03
2023-02-11T11:07:53.138Z,99967.81
2023-02-11T11:09:59.678Z,99963.69
2023-02-11T11:12:02.809Z,99956.22
2023-02-11T11:14:06.046Z,99959.41
2023-02-11T11:16:22.302Z,99964.41
2023-02-11T11:18:25.440Z,99962.28
2023-02-11T11:20:35.353Z,99965.44
2023-02-11T11:22:39.219Z,99969.47
2023-02-11T11:24:46.731Z,99970.56
2023-02-11T11:26:52.845Z,99973.72
2023-02-11T11:28:59.095Z,99967.41
2023-02-11T11:31:02.509Z,99965.28
2023-02-11T11:33:05.767Z,99952.25
2023-02-11T11:35:23.129Z,99955.88
2023-02-11T11:37:29.418Z,99950.66
2023-02-11T11:39:34.321Z,99955.63
2023-02-11T11:41:37.479Z,99959.53
2023-02-11T11:43:40.715Z,99955.81
2023-02-11T11:45:55.542Z,99950.47
2023-02-11T11:48:01.109Z,99959.72
2023-02-11T11:50:17.705Z,99949.72
2023-02-11T11:52:42.939Z,99952.50
2023-02-11T11:54:50.463Z,99949.66
2023-02-11T11:56:57.265Z,99947.41
2023-02-11T11:59:01.999Z,99947.63
2023-02-11T12:01:16.470Z,99949.56
2023-02-11T12:03:59.944Z,99955.63
2023-02-11T12:06:14.574Z,99959.03
2023-02-11T12:08:24.990Z,99959.78
2023-02-11T12:10:42.413Z,99964.00
2023-02-11T12:12:50.289Z,99958.72
2023-02-11T12:15:00.184Z,99959.53
2023-02-11T12:17:07.818Z,99954.22
2023-02-11T12:19:26.625Z,99949.00
2023-02-11T12:21:36.154Z,99958.00
2023-02-11T12:23:47.603Z,99956.53
2023-02-11T12:25:55.575Z,99952.69
2023-02-11T12:28:18.087Z,99959.00
2023-02-11T12:30:35.594Z,99965.91
2023-02-11T12:32:46.206Z,99957.38
2023-02-11T12:35:18.551Z,99950.72
2023-02-11T12:37:31.468Z,99952.38
2023-02-11T12:39:45.478Z,99951.50
2023-02-11T12:42:21.343Z,99948.00
2023-02-11T12:44:30.804Z,99943.56
2023-02-11T12:46:39.106Z,99946.06
2023-02-11T12:48:57.752Z,99936.44
2023-02-11T12:51:06.623Z,99935.47
2023-02-11T12:53:23.777Z,99933.63
2023-02-11T12:55:29.705Z,99919.59
2023-02-11T12:57:34.573Z,99920.38
2023-02-11T12:59:45.681Z,99909.91
2023-02-11T13:01:50.125Z,99907.69
2023-02-11T13:03:56.036Z,99920.59
2023-02-11T13:06:02.101Z,99913.50
2023-02-11T13:08:10.196Z,99908.94
2023-02-11T13:10:23.667Z,99898.63
2023-02-11T13:12:46.294Z,99898.47
2023-02-11T13:14:51.210Z,99901.69
2023-02-11T13:16:54.697Z,99905.81
2023-02-11T13:19:03.787Z,99900.31
2023-02-11T13:21:21.035Z,99901.81
2023-02-11T13:23:29.969Z,99897.25
2023-02-11T13:25:37.874Z,99889.13
2023-02-11T13:27:45.425Z,99890.63
2023-02-11T13:30:15.840Z,99890.38
2023-02-11T13:32:18.967Z,99894.56
2023-02-11T13:34:25.969Z,99886.63
2023-02-11T13:36:30.269Z,99898.69
2023-02-11T13:38:33.957Z,99891.72
2023-02-11T13:40:38.554Z,99897.84
2023-02-11T13:42:51.654Z,99891.34
2023-02-11T13:44:55.326Z,99897.94
2023-02-11T13:47:01.384Z,99902.72
2023-02-11T13:49:04.558Z,99897.31
2023-02-11T13:51:09.517Z,99894.53
2023-02-11T13:53:15.061Z,99901.31
2023-02-11T13:55:23.422Z,99891.00
2023-02-11T13:57:36.449Z,99891.44
2023-02-11T13:59:48.477Z,99892.69
2023-02-11T14:02:23.841Z,99896.63
2023-02-11T14:04:47.373Z,99894.66
2023-02-11T14:07:42.960Z,99887.63
2023-02-11T14:09:46.135Z,99890.25
2023-02-11T14:11:51.377Z,99891.91
2023-02-11T14:14:15.425Z,99887.63
2023-02-11T14:16:36.469Z,99892.13
2023-02-11T14:19:01.857Z,99896.50
2023-02-11T14:21:13.150Z,99891.28
2023-02-11T14:23:25.720Z,99890.38
2023-02-11T14:25:28.971Z,99887.03
2023-02-11T14:27:37.565Z,99890.19
2023-02-11T14:29:45.338Z,99891.38
2023-02-11T14:31:56.191Z,99887.44
2023-02-11T14:34:07.743Z,99895.59
2023-02-11T14:36:21.278Z,99887.81
2023-02-11T14:38:29.492Z,99889.66
2023-02-11T14:40:35.269Z,99888.19
2023-02-11T14:42:39.496Z,99892.03
2023-02-11T14:44:43.062Z,99889.72
2023-02-11T14:46:47.214Z,99884.69
2023-02-11T14:48:53.793Z,99886.69
2023-02-11T14:51:01.881Z,99884.91
2023-02-11T14:53:06.281Z,99896.06
2023-02-11T14:55:18.066Z,99889.25
2023-02-11T14:57:21.973Z,99898.84
2023-02-11T14:59:25.010Z,99887.69
2023-02-11T15:01:31.832Z,99891.97
2023-02-11T15:03:36.974Z,99902.28
2023-02-11T15:05:41.587Z,99897.91
2023-02-11T15:07:46.817Z,99899.56
2023-02-11T15:09:52.046Z,99900.44
2023-02-11T15:11:55.579Z,99896.19
2023-02-11T15:14:01.183Z,99896.44
2023-02-11T15:16:08.089Z,99902.56
2023-02-11T15:18:21.388Z,99904.38
2023-02-11T15:20:28.121Z,99906.25
2023-02-11T15:22:36.538Z,99909.94
2023-02-11T15:24:40.593Z,99906.53
2023-02-11T15:26:43.701Z,99919.59
2023-02-11T15:28:51.928Z,99911.66
2023-02-11T15:30:59.615Z,99910.16
2023-02-11T15:33:05.864Z,99921.75
2023-02-11T15:35:13.678Z,99922.31
2023-02-11T15:37:21.803Z,99920.72
2023-02-11T15:39:34.277Z,99912.22
2023-02-11T15:41:38.785Z,99908.03
2023-02-11T15:43:43.470Z,99913.38
2023-02-11T15:45:56.160Z,99908.28
2023-02-11T15:48:01.373Z,99911.88
2023-02-11T15:50:04.665Z,99917.09
2023-02-11T15:52:08.945Z,99917.09
2023-02-11T15:54:18.458Z,99920.72
2023-02-11T15:56:25.795Z,99921.59
2023-02-11T15:58:28.989Z,99926.00
2023-02-11T16:00:36.280Z,99936.44
2023-02-11T16:02:45.132Z,99938.13
2023-02-11T16:04:53.415Z,99937.41
2023-02-11T16:06:57.126Z,99930.47
2023-02-11T16:09:02.448Z,99941.22
2023-02-11T16:11:09.101Z,99940.09
2023-02-11T16:13:20.816Z,99937.03
2023-02-11T16:15:43.303Z,99932.00
2023-02-11T16:17:46.481Z,99939.91
2023-02-11T16:19:51.193Z,99937.34
2023-02-11T16:21:54.907Z,99939.13
2023-02-11T16:23:58.785Z,99941.66
2023-02-11T16:26:08.502Z,99939.97
2023-02-11T16:28:15.223Z,99951.25
2023-02-11T16:30:30.317Z,99948.59
2023-02-11T16:32:33.475Z,99955.47
2023-02-11T16:34:37.223Z,99955.69
2023-02-11T16:36:40.420Z,99957.41
2023-02-11T16:38:43.901Z,99948.69
2023-02-11T16:40:49.357Z,99960.78
2023-02-11T16:42:53.550Z,99950.38
2023-02-11T16:44:56.744Z,99952.97
2023-02-11T16:47:03.203Z,99958.19
2023-02-11T16:49:11.602Z,99958.19
2023-02-11T16:51:14.687Z,99959.94
2023-02-11T16:53:22.675Z,99960.88
2023-02-11T16:55:25.816Z,99959.25
2023-02-11T16:57:30.440Z,99961.81
2023-02-11T16:59:33.732Z,99963.53
2023-02-11T17:01:37.489Z,99962.66
2023-02-11T17:03:43.630Z,99958.22
2023-02-11T17:05:55.326Z,99964.38
2023-02-11T17:08:00.888Z,99960.88
2023-02-11T17:10:04.067Z,99961.81
2023-02-11T17:12:07.872Z,99969.72
2023-02-11T17:14:11.152Z,99967.19
2023-02-11T17:16:20.014Z,99962.06
2023-02-11T17:18:23.270Z,99963.94
2023-02-11T17:20:27.916Z,99963.22
2023-02-11T17:22:31.075Z,99962.47
2023-02-11T17:24:34.197Z,99961.72
2023-02-11T17:26:37.344Z,99958.31
2023-02-11T17:28:40.496Z,99965.22
2023-02-11T17:30:44.182Z,99971.22
2023-02-11T17:32:47.420Z,99972.09
2023-02-11T17:34:50.555Z,99978.97
2023-02-11T17:36:55.090Z,99984.13
2023-02-11T17:38:58.874Z,99979.81
2023-02-11T17:41:03.286Z,99978.03
2023-02-11T17:43:06.686Z,99989.28
2023-02-11T17:45:10.834Z,99985.81
2023-02-11T17:47:14.056Z,99984.97
2023-02-11T17:49:17.632Z,99989.28
2023-02-11T17:51:24.778Z,99991.06
2023-02-11T17:53:29.434Z,99991.91
2023-02-11T17:55:34.134Z,99996.25
2023-02-11T17:57:37.420Z,100003.22
2023-02-11T17:59:41.002Z,99999.75
2023-02-11T18:01:44.673Z,100001.56
2023-02-11T18:03:47.975Z,100005.94
2023-02-11T18:05:51.484Z,100009.47
2023-02-11T18:07:55.869Z,100013.88
2023-02-11T18:10:00.330Z,100003.56
2023-02-11T18:12:03.490Z,99996.69
2023-02-11T18:14:07.909Z,99992.44
2023-02-11T18:16:15.546Z,99995.13
2023-02-11T18:18:18.845Z,99995.31
2023-02-11T18:20:22.175Z,99990.94
2023-02-11T18:22:25.916Z,99988.25
2023-02-11T18:24:28.994Z,99997.72
2023-02-11T18:26:33.551Z,99998.66
2023-02-11T18:28:36.725Z,100003.25
2023-02-11T18:30:39.976Z,100004.69
2023-02-11T18:32:43.147Z,100008.38
2023-02-11T18:34:46.272Z,100014.44
2023-02-11T18:36:49.900Z,100012.00
2023-02-11T18:38:54.309Z,100002.56
2023-02-11T18:40:58.749Z,100007.81
2023-02-11T18:43:03.324Z,100004.38
2023-02-11T18:45:09.377Z,100009.63
2023-02-11T18:47:12.588Z,100007.09
2023-02-11T18:49:16.185Z,100014.06
2023-02-11T18:51:19.697Z,100012.25
2023-02-11T18:53:23.285Z,100015.66
2023-02-11T18:55:26.518Z,100012.16
2023-02-11T18:57:29.717Z,100018.16
2023-02-11T18:59:34.574Z,100007.75
2023-02-11T19:01:40.005Z,99999.91
2023-02-11T19:03:43.426Z,100006.91
2023-02-11T19:05:48.335Z,100001.72
2023-02-11T19:07:51.548Z,100010.38
2023-02-11T19:09:54.964Z,100004.28
2023-02-11T19:11:59.839Z,100014.69
2023-02-11T19:14:10.129Z,100015.56
2023-02-11T19:16:16.827Z,100007.75
2023-02-11T19:18:19.953Z,100009.47
2023-02-11T19:20:22.978Z,100018.22
2023-02-11T19:22:26.080Z,100015.69
2023-02-11T19:24:30.409Z,100011.50
2023-02-11T19:26:33.530Z,100008.03
2023-02-11T19:28:37.476Z,100006.47
2023-02-11T19:30:40.591Z,100003.00
2023-02-11T19:32:45.148Z,100003.94
2023-02-11T19:34:48.471Z,100004.03
2023-02-11T19:36:51.760Z,100018.97
2023-02-11T19:38:55.355Z,100016.63
2023-02-11T19:40:58.811Z,100016.72
2023-02-11T19:43:02.024Z,100008.09
2023-02-11T19:45:07.332Z,100002.22
2023-02-11T19:47:12.604Z,100010.94
2023-02-11T19:49:22.820Z,100012.66
2023-02-11T19:51:26.011Z,100015.28
2023-02-11T19:53:29.150Z,100016.25
2023-02-11T19:55:32.425Z,100010.13
2023-02-11T19:57:35.596Z,100023.91
2023-02-11T19:59:38.788Z,100028.28
2023-02-11T20:01:42.502Z,100018.66
2023-02-11T20:03:47.319Z,100020.38
2023-02-11T20:05:51.992Z,100023.69
2023-02-11T20:07:55.388Z,100024.50
2023-02-11T20:09:58.773Z,100027.06
2023-02-11T20:12:01.946Z,100029.66
2023-02-11T20:14:06.727Z,100027.00
2023-02-11T20:16:12.432Z,100017.44
2023-02-11T20:18:15.618Z,100021.81
2023-02-11T20:20:19.102Z,100023.63
2023-02-11T20:22:23.522Z,100014.94
2023-02-11T20:24:27.198Z,100016.72
2023-02-11T20:26:31.571Z,100021.91
2023-02-11T20:28:34.721Z,100011.50
2023-02-11T20:30:39.150Z,100015.03
2023-02-11T20:32:42.270Z,100009.91
2023-02-11T20:34:45.427Z,100018.53
2023-02-11T20:36:51.962Z,100022.09
2023-02-11T20:38:56.834Z,100017.81
2023-02-11T20:41:04.127Z,100010.88
2023-02-11T20:43:07.324Z,100015.31
2023-02-11T20:45:10.756Z,100018.88
2023-02-11T20:47:13.887Z,100019.84
2023-02-11T20:49:18.913Z,100019.84
2023-02-11T20:51:24.796Z,100019.94
2023-02-11T20:53:27.851Z,100020.06
2023-02-11T20:55:32.313Z,100024.41
2023-02-11T20:57:35.612Z,100036.53
2023-02-11T20:59:38.769Z,100034.81
2023-02-11T21:01:43.615Z,100040.88
2023-02-11T21:03:50.844Z,100043.44
2023-02-11T21:05:59.243Z,100043.41
2023-02-11T21:08:02.260Z,100044.28
2023-02-11T21:10:06.129Z,100051.25
2023-02-11T21:12:10.611Z,100037.44
2023-02-11T21:14:16.046Z,100036.63
2023-02-11T21:16:21.357Z,100041.88
2023-02-11T21:18:25.051Z,100037.66
2023-02-11T21:20:28.089Z,100040.34
2023-02-11T21:22:31.272Z,100044.66
2023-02-11T21:24:34.393Z,100042.13
2023-02-11T21:26:38.533Z,100043.03
2023-02-11T21:28:43.033Z,100046.50
2023-02-11T21:30:46.209Z,100048.25
2023-02-11T21:32:49.339Z,100041.41
2023-02-11T21:34:52.443Z,100043.94
2023-02-11T21:36:55.561Z,100052.66
2023-02-11T21:39:00.175Z,100047.44
2023-02-11T21:41:06.994Z,100050.97
2023-02-11T21:43:10.059Z,100051.78
2023-02-11T21:45:14.579Z,100057.78
2023-02-11T21:47:17.656Z,100063.03
2023-02-11T21:49:21.427Z,100058.81
2023-02-11T21:51:26.302Z,100060.56
2023-02-11T21:53:29.378Z,100055.50
2023-02-11T21:55:32.517Z,100053.00
2023-02-11T21:57:35.662Z,100054.84
2023-02-11T21:59:38.885Z,100054.84
2023-02-11T22:01:43.359Z,100053.13
2023-02-11T22:03:47.310Z,100053.16
2023-02-11T22:05:50.400Z,100055.78
2023-02-11T22:07:53.528Z,100054.06
2023-02-11T22:09:56.599Z,100055.75
2023-02-11T22:11:59.689Z,100055.75
2023-02-11T22:14:02.701Z,100069.59
2023-02-11T22:16:08.023Z,100068.69
2023-02-11T22:18:12.660Z,100061.09
2023-02-11T22:20:16.850Z,100064.59
2023-02-11T22:22:19.925Z,100071.50
2023-02-11T22:24:23.016Z,100069.78
2023-02-11T22:26:27.765Z,100068.16
2023-02-11T22:28:30.931Z,100072.59
2023-02-11T22:30:34.194Z,100065.81
2023-02-11T22:32:37.416Z,100065.81
2023-02-11T22:34:41.866Z,100064.06
2023-02-11T22:36:46.982Z,100062.25
2023-02-11T22:38:50.360Z,100051.00
2023-02-11T22:40:53.482Z,100044.94
2023-02-11T22:42:56.651Z,100053.56
2023-02-11T22:44:59.657Z,100053.53
2023-02-11T22:47:02.654Z,100057.00
2023-02-11T22:49:07.202Z,100056.16
2023-02-11T22:51:13.376Z,100061.28
2023-02-11T22:53:16.387Z,100069.91
2023-02-11T22:55:19.519Z,100058.75
2023-02-11T22:57:22.604Z,100063.13
2023-02-11T22:59:25.744Z,100061.47
2023-02-11T23:01:29.122Z,100050.25
2023-02-11T23:03:32.868Z,100052.00
2023-02-11T23:05:39.286Z,100051.16
2023-02-11T23:07:43.652Z,100058.94
2023-02-11T23:09:48.052Z,100047.72
2023-02-11T23:11:54.357Z,100053.75
2023-02-11T23:13:57.666Z,100058.09
2023-02-11T23:16:00.747Z,100052.94
2023-02-11T23:18:03.830Z,100053.91
2023-02-11T23:20:08.019Z,100047.88
2023-02-11T23:22:11.050Z,100046.22
2023-02-11T23:24:16.080Z,100058.34
2023-02-11T23:26:19.749Z,100066.09
2023-02-11T23:28:23.002Z,100066.09
2023-02-11T23:30:26.392Z,100064.44
2023-02-11T23:32:29.496Z,100067.88
2023-02-11T23:34:32.637Z,100069.66
2023-02-11T23:36:35.886Z,100069.66
2023-02-11T23:38:38.996Z,100068.78
2023-02-11T23:40:43.701Z,100063.59
2023-02-11T23:42:47.673Z,100069.75
2023-02-11T23:44:50.782Z,100076.69
2023-02-11T23:46:53.787Z,100076.75
2023-02-11T23:48:56.865Z,100070.72
2023-02-11T23:51:00.045Z,100088.00
2023-02-11T23:53:03.119Z,100081.94
2023-02-11T23:55:07.048Z,100085.44
2023-02-11T23:57:11.576Z,100088.06
2023-02-11T23:59:14.940Z,100086.28
